Vilnius, Lithuania
Current Conditions -  °F | °C
As of 5:50 AM on Friday 28 Nov 2014 (Local Time) from EYVI Reporting Station
Light Snow Light Snow  
Wind Chill:   Ceiling: 2700
Heat Index: 19°   Visibility: 2.5mi
Dew Point: 18°   Wind: 8mph
Humidity: 93%   Direction: 100°E
Pressure: 30.39"   Gusts: NA
Location:  54.7°N, 25.27°E
Report Text: EYVI 280250Z 10007KT 060V120 4000 -SN BR OVC027 M07/M08 Q1029 R20/5/0195 NOSIG
Loading
Personal Weather Stations






























Interactive Weather Map New forecast layout! Learn more

10-Day Weather Forecast

Advertisements
Track Severe Weather on mobile